Boulder City, Nevada Weather observations

Data are for observation ending at time listed.
 Day   Time    Ave.   Ave.  Ave.  Vector   Max.   Stn.    Total    Solar   Ave.  
  of    of     Air    Rel.  Wind   Wind    Wind   Baro.  Precip.   Rad.    Soil  
Year   Day     Temp.  Hum.  Speed  Dir.    Gust   Pres.                    Temp. 
2015   (PST)    F      %     mph   deg.    mph     mb.     in.     W/m2     F   
------------------------------------------------------------------------------
 240   20:00   95.2    18    3.2   234      5.1   929.7    0.00       0    101.8
 240   20:10   94.9    18    3.4   239      4.9   929.8    0.00       0    101.6
 240   20:20   94.5    19    3.1   234      4.9   929.8    0.00       0    101.4
 240   20:30   94.0    20    2.3   219      3.4   929.8    0.00       0    101.3
 240   20:40   93.9    21    3.1   234      4.5   929.8    0.00       0    101.2
 240   20:50   94.0    21    3.5   233      5.0   929.8    0.00       0    101.0
 240   21:00   94.1    21    4.1   237      6.2   929.8    0.00       0    100.9
 240   21:10   93.9    21    4.3   237      5.8   929.8    0.00       0    100.7
 240   21:20   93.5    21    3.7   239      5.3   929.7    0.00       0    100.6
 240   21:30   93.1    22    3.2   232      5.0   929.6    0.00       0    100.4
 240   21:40   92.4    22    2.4   205      3.9   929.6    0.00       0    100.3
 240   21:50   92.1    22    3.2   220      4.6   929.6    0.00       0    100.1
 240   22:00   91.6    23    3.2   218      4.2   929.6    0.00       0    100.0
 240   22:10   91.3    23    3.7   226      4.6   929.6    0.00       0    99.8
 240   22:20   91.0    24    3.4   235      5.1   929.5    0.00       0    99.7
 240   22:30   91.3    23    3.2   228      4.5   929.5    0.00       0    99.6
 240   22:40   91.1    23    2.7   208      4.4   929.5    0.00       0    99.4
 240   22:50   90.7    24    2.5   207      3.7   929.5    0.00       0    99.3
 240   23:00   90.3    24    2.9   214      3.9   929.4    0.00       0    99.2
 240   23:10   90.2    24    2.8   214      4.0   929.4    0.00       0    99.0
 240   23:20   90.1    25    2.9   230      4.4   929.4    0.00       0    98.9
 240   23:30   90.5    24    3.5   232      4.8   929.4    0.00       0    98.8
 240   23:40   91.5    23    4.4   242      6.0   929.4    0.00       0    98.7
 240   23:50   91.7    23    4.3   244      6.9   929.5    0.00       0    98.5
 241    0:00   91.5    23    3.2   236      5.0   929.6    0.00       0    98.4
 241    0:10   90.7    24    2.2   203      3.7   929.6    0.00       0    98.3
 241    0:20   89.8    25    2.0   214      3.0   929.5    0.00       0    98.2
 241    0:30   89.9    25    2.5   218      3.9   929.4    0.00       0    98.0
 241    0:40   90.5    24    3.3   240      5.2   929.3    0.00       0    97.9
 241    0:50   90.6    24    2.3   228      3.5   929.3    0.00       0    97.8
 241    1:00   89.4    25    2.2   218      3.4   929.3    0.00       0    97.7
 241    1:10   88.5    26    1.9   200      3.2   929.3    0.00       0    97.6
 241    1:20   89.1    25    4.3   222      8.1   929.3    0.00       0    97.5
 241    1:30   90.0    25    4.2   237      6.7   929.3    0.00       0    97.4
 241    1:40   89.8    25    3.0   228      4.5   929.3    0.00       0    97.3
 241    1:50   89.8    25    2.9   232      5.0   929.3    0.00       0    97.1
 241    2:00   88.8    26    1.9   204      2.8   929.3    0.00       0    97.0
 241    2:10   87.5    27    2.1   205      3.1   929.3    0.00       0    96.9
 241    2:20   86.8    28    2.2   196      3.4   929.3    0.00       0    96.8
 241    2:30   86.8    27    2.4   207      3.9   929.3    0.00       0    96.7
 241    2:40   86.5    28    2.1   219      3.1   929.3    0.00       0    96.6
 241    2:50   85.7    29    2.6   215      3.6   929.3    0.00       0    96.5
 241    3:00   85.0    29    2.4   234      3.4   929.3    0.00       0    96.4
 241    3:10   85.3    29    2.7   228      3.9   929.3    0.00       0    96.3
 241    3:20   84.6    30    2.8   226      3.9   929.3    0.00       0    96.2
 241    3:30   84.0    30    3.0   207      3.9   929.2    0.00       0    96.1
 241    3:40   84.0    30    2.7   223      3.7   929.2    0.00       0    96.0
 241    3:50   83.6    30    2.8   211      3.5   929.1    0.00       0    95.9
 241    4:00   83.6    30    2.6   213      3.5   929.1    0.00       0    95.8
 241    4:10   83.9    30    3.5   219      4.7   929.2    0.00       0    95.7
 241    4:20   85.0    29    2.9   234      4.3   929.2    0.00       0    95.6
 241    4:30   85.7    28    2.3   249      3.6   929.3    0.00       0    95.5
 241    4:40   85.1    28    2.3   232      3.2   929.3    0.00       0    95.4
 241    4:50   83.5    30    3.3   219      4.5   929.3    0.00       0    95.3
 241    5:00   83.7    30    3.3   210      4.7   929.4    0.00       0    95.2
 241    5:10   84.5    29    3.1   220      4.6   929.6    0.00       1    95.1
 241    5:20   83.9    29    2.7   205      3.6   929.8    0.00       7    95.0
 241    5:30   83.7    30    2.6   201      3.5   929.9    0.00      19    94.9
 241    5:40   84.2    29    2.4   200      3.6   930.0    0.00      46    94.8
 241    5:50   85.5    28    1.9   202      2.8   930.1    0.00      76    94.7
 241    6:00   87.3    27    2.4   189      5.0   930.2    0.00     108    94.6
 241    6:10   88.7    26    3.5   183      5.4   930.4    0.00     140    94.6
 241    6:20   90.3    24    2.7   210      4.6   930.6    0.00     146    94.4
 241    6:30   91.1    24    2.7   208      4.5   930.8    0.00     199    94.4
 241    6:40   92.1    23    3.1   211      4.9   930.9    0.00     238    94.3
 241    6:50   92.8    22    3.5   191      5.8   931.1    0.00     272    94.2
 241    7:00   93.7    21    3.0   176      5.5   931.3    0.00     304    94.1
 241    7:10   94.3    21    2.8   178      4.8   931.3    0.00     338    94.0
 241    7:20   94.7    21    3.1   183      5.6   931.5    0.00     371    94.0
 241    7:30   94.7    20    4.2   181      6.7   931.6    0.00     406    94.0
 241    7:40   95.3    20    4.3   176      6.4   931.7    0.00     437    94.0
 241    7:50   95.7    20    3.2   178      6.0   931.8    0.00     460    94.0
 241    8:00   97.5    18    2.8   137      5.7   931.9    0.00     499    94.0
 241    8:10   99.0    16    3.7   132      7.1   932.0    0.00     532    94.0
 241    8:20   99.3    15    3.4   141      6.7   932.1    0.00     561    94.2
 241    8:30   99.6    15    2.9   150      6.6   932.3    0.00     590    94.3
 241    8:40   98.8    15    3.1   160      5.7   932.4    0.00     606    94.4
 241    8:50  100.1    14    3.1   113      7.2   932.4    0.00     634    94.6
 241    9:00  101.0    14    2.5   141      5.8   932.5    0.00     664    94.8
 241    9:10  101.8    14    2.6   148      5.5   932.6    0.00     681    95.0
 241    9:20  101.1    14    3.0   165      6.8   932.6    0.00     704    95.3
 241    9:30  100.4    14    3.0   186      6.6   932.6    0.00     705    95.5
 241    9:40  101.4    14    2.9   107      6.8   932.6    0.00     524    95.8
 241    9:50  101.4    14    1.5   258      4.7   932.5    0.00     177    96.1
 241   10:00  102.0    14    2.0   139      6.9   932.5    0.00     237    96.5
 241   10:10  102.4    15    1.7    61      5.3   932.5    0.00     572    96.8
 241   10:20  102.5    15    3.1   105      9.6   932.5    0.00     738    97.2
 241   10:30  103.0    15    4.1    86      9.9   932.5    0.00     771    97.6
 241   10:40  102.7    16    2.8   207      7.5   932.3    0.00     753    98.0
 241   10:50  102.2    16    2.9   204      6.9   932.1    0.00     807    98.5
 241   11:00  101.6    16    2.9   282      7.9   931.9    0.00     843    98.9
 241   11:10  103.4    15    3.4   196      9.4   931.7    0.00     856    99.3
 241   11:20  103.7    15    4.9   170     15.7   931.6    0.00     813    99.8
 241   11:30  103.8    14    5.0   160     13.4   931.3    0.00     611    100.3
 241   11:40  103.7    15    6.3   232     15.9   931.2    0.00     921    100.8
 241   11:50  104.7    14    8.3   172     18.0   931.1    0.00     716    101.3
 241   12:00  102.4    15    6.7   137     17.2   931.0    0.00     188    101.8
 241   12:10  103.7    14    5.7   173     16.1   930.7    0.00     711    102.1
 241   12:20  104.2    14    7.4   176     14.8   930.6    0.00     182    102.6
 241   12:30  102.3    15    5.7   141     13.7   930.5    0.00     153    103.0
 241   12:40  102.3    15    6.8   186     15.5   930.4    0.00     166    103.4
 241   12:50  102.7    15    5.6   226     20.8   930.0    0.00     316    103.7
 241   13:00  103.9    14    6.8   188     12.9   930.0    0.00     748    103.9
 241   13:10  104.5    14    5.9   166     11.2   929.9    0.00     261    104.1
 241   13:20  103.5    13    8.6   161     19.4   929.8    0.00     277    104.2
 241   13:30  104.9    13    5.1   177     11.3   929.6    0.00     778    104.4
 241   13:40  107.2    12    5.9   184     16.3   929.5    0.00     700    104.5
 241   13:50  107.8    12    8.7   189     18.6   929.5    0.00     887    104.5
 241   14:00  106.9    12    8.4   197     14.6   929.5    0.00     549    104.6
 241   14:10  106.7    12    8.1   185     13.5   929.5    0.00     668    104.6
 241   14:20  107.2    12    9.2   195     17.5   929.3    0.00     789    104.6
 241   14:30  107.1    12   10.2   210     18.0   929.3    0.00     579    104.7
 241   14:40  106.3    12    7.9   203     15.4   929.3    0.00     629    104.7
 241   14:50  106.1    12    6.7   211     12.0   929.1    0.00     378    104.8
 241   15:00  106.0    12    8.1   178     13.5   929.0    0.00     366    104.8
 241   15:10  105.2    12    8.6   208     16.8   928.8    0.00     370    104.9
 241   15:20  106.2    12   10.8   201     20.7   928.6    0.00     555    105.0
 241   15:30  105.1    12    7.7   216     15.2   928.5    0.00     322    105.0
 241   15:40  104.1    13    7.1   210     13.2   928.4    0.00     125    105.0
 241   15:50  103.7    13    7.7   199     13.8   928.2    0.00     222    105.0
 241   16:00  105.4    12    7.2   186     17.5   928.0    0.00     366    105.0
 241   16:10  103.9    13   10.2   202     17.6   928.0    0.00      91    105.0
 241   16:20  103.6    13    8.1   192     14.5   928.0    0.00     210    104.9
 241   16:30  104.5    13    7.9   201     13.2   927.8    0.00     216    104.9
 241   16:40  103.4    13    7.2   214     16.2   927.8    0.00     173    104.8
 241   16:50  104.0    13    8.1   188     14.8   927.8    0.00     227    104.8
 241   17:00  104.3    12    7.0   204     13.7   927.7    0.00     200    104.8
 241   17:10  103.8    13    8.2   214     14.2   927.6    0.00     165    104.7
 241   17:20  103.0    13    9.2   216     17.2   927.5    0.00     136    104.5
 241   17:30  102.3    13    8.3   221     16.7   927.6    0.00     105    104.4
 241   17:40  101.6    13    7.6   223     13.4   927.5    0.00      56    104.3
 241   17:50  101.3    13    8.2   220     13.9   927.4    0.00      33    104.2
 241   18:00  101.0    13    7.7   217     16.5   927.4    0.00      24    104.1
 241   18:10  100.6    13    7.3   224     12.8   927.4    0.00      13    103.9
 241   18:20  100.0    13    6.4   213     10.4   927.4    0.00       4    103.8
 241   18:30   99.5    13    6.5   216     11.5   927.4    0.00       1    103.7
 241   18:40   99.2    12    7.1   219     11.5   927.4    0.00       0    103.6
 241   18:50   98.8    12    7.0   219     11.4   927.4    0.00       0    103.5
 241   19:00   98.7    13    5.9   222     11.2   927.5    0.00       0    103.4
 241   19:10   98.1    13    5.1   214      9.1   927.6    0.00       0    103.2
 241   19:20   97.9    13    5.6   215     10.3   927.6    0.00       0    103.1
 241   19:30   97.4    13    5.2   229      7.8   927.7    0.00       0    102.9
 241   19:40   96.5    13    3.9   225      6.0   927.7    0.00       0    102.8
 241   19:50   96.0    14    3.3   224      4.7   927.7    0.00       0    102.7

Return to Boulder City, Nevada graphs page.


Western Regional Climate Center,wrcc@dri.edu